sensor_id;sensor_type;location;lat;lon;timestamp;pressure;altitude;pressure_sealevel;temperature;humidity
42621;BME280;28252;53.336;-6.298;2022-08-14T00:00:20;100704.66;;;26.50;65.50
42621;BME280;28252;53.336;-6.298;2022-08-14T00:00:51;100704.47;;;26.52;65.73
42621;BME280;28252;53.336;-6.298;2022-08-14T00:01:23;100709.09;;;26.51;65.43
42621;BME280;28252;53.336;-6.298;2022-08-14T00:01:54;100700.91;;;26.51;65.57
42621;BME280;28252;53.336;-6.298;2022-08-14T00:02:25;100703.63;;;26.51;65.53
42621;BME280;28252;53.336;-6.298;2022-08-14T00:02:56;100703.63;;;26.51;65.41
42621;BME280;28252;53.336;-6.298;2022-08-14T00:03:28;100708.03;;;26.52;65.51
42621;BME280;28252;53.336;-6.298;2022-08-14T00:03:59;100703.63;;;26.51;65.38
42621;BME280;28252;53.336;-6.298;2022-08-14T00:04:30;100711.81;;;26.51;65.50
42621;BME280;28252;53.336;-6.298;2022-08-14T00:05:01;100709.72;;;26.53;65.73
42621;BME280;28252;53.336;-6.298;2022-08-14T00:05:32;100705.28;;;26.52;65.63
42621;BME280;28252;53.336;-6.298;2022-08-14T00:06:03;100710.75;;;26.52;65.41
42621;BME280;28252;53.336;-6.298;2022-08-14T00:06:34;100701.72;;;26.52;65.60
42621;BME280;28252;53.336;-6.298;2022-08-14T00:07:05;100706.34;;;26.51;65.71
42621;BME280;28252;53.336;-6.298;2022-08-14T00:07:37;100706.34;;;26.51;65.58
42621;BME280;28252;53.336;-6.298;2022-08-14T00:08:08;100709.91;;;26.52;65.47
42621;BME280;28252;53.336;-6.298;2022-08-14T00:08:38;100703.63;;;26.51;65.77
42621;BME280;28252;53.336;-6.298;2022-08-14T00:09:09;100708.84;;;26.53;65.71
42621;BME280;28252;53.336;-6.298;2022-08-14T00:09:44;100709.09;;;26.51;65.58
42621;BME280;28252;53.336;-6.298;2022-08-14T00:10:16;100701.72;;;26.52;65.33
42621;BME280;28252;53.336;-6.298;2022-08-14T00:10:48;100703.38;;;26.53;65.73
42621;BME280;28252;53.336;-6.298;2022-08-14T00:11:19;100700.91;;;26.51;65.69
42621;BME280;28252;53.336;-6.298;2022-08-14T00:11:51;100699.81;;;26.52;65.52
42621;BME280;28252;53.336;-6.298;2022-08-14T00:12:22;100703.38;;;26.53;65.46
42621;BME280;28252;53.336;-6.298;2022-08-14T00:12:54;100699.81;;;26.52;65.49
42621;BME280;28252;53.336;-6.298;2022-08-14T00:13:26;100702.56;;;26.52;65.41
42621;BME280;28252;53.336;-6.298;2022-08-14T00:14:00;100701.50;;;26.53;65.40
42621;BME280;28252;53.336;-6.298;2022-08-14T00:14:31;100708.84;;;26.53;65.34
42621;BME280;28252;53.336;-6.298;2022-08-14T00:15:03;100701.50;;;26.53;65.59
42621;BME280;28252;53.336;-6.298;2022-08-14T00:15:36;100699.63;;;26.54;65.54
42621;BME280;28252;53.336;-6.298;2022-08-14T00:16:08;100698.78;;;26.53;65.51
42621;BME280;28252;53.336;-6.298;2022-08-14T00:16:43;100694.16;;;26.54;65.15
42621;BME280;28252;53.336;-6.298;2022-08-14T00:17:14;100701.50;;;26.53;65.42
42621;BME280;28252;53.336;-6.298;2022-08-14T00:17:45;100698.78;;;26.53;65.28
42621;BME280;28252;53.336;-6.298;2022-08-14T00:18:18;100695.84;;;26.55;65.24
42621;BME280;28252;53.336;-6.298;2022-08-14T00:18:50;100698.78;;;26.53;65.38
42621;BME280;28252;53.336;-6.298;2022-08-14T00:19:20;100695.19;;;26.53;65.31
42621;BME280;28252;53.336;-6.298;2022-08-14T00:19:51;100693.31;;;26.53;65.31
42621;BME280;28252;53.336;-6.298;2022-08-14T00:20:33;100694.97;;;26.54;65.49
42621;BME280;28252;53.336;-6.298;2022-08-14T00:21:04;100696.69;;;26.55;65.23
42621;BME280;28252;53.336;-6.298;2022-08-14T00:21:35;100690.59;;;26.53;65.53
42621;BME280;28252;53.336;-6.298;2022-08-14T00:22:06;100692.25;;;26.54;65.29
42621;BME280;28252;53.336;-6.298;2022-08-14T00:22:37;100699.41;;;26.55;65.33
42621;BME280;28252;53.336;-6.298;2022-08-14T00:23:09;100693.94;;;26.55;65.33
42621;BME280;28252;53.336;-6.298;2022-08-14T00:23:40;100693.13;;;26.55;65.34
42621;BME280;28252;53.336;-6.298;2022-08-14T00:24:12;100694.97;;;26.54;65.21
42621;BME280;28252;53.336;-6.298;2022-08-14T00:24:44;100688.69;;;26.54;65.04
42621;BME280;28252;53.336;-6.298;2022-08-14T00:25:15;100696.69;;;26.55;65.32
42621;BME280;28252;53.336;-6.298;2022-08-14T00:25:47;100696.88;;;26.54;65.26
42621;BME280;28252;53.336;-6.298;2022-08-14T00:26:18;100693.31;;;26.53;65.24
42621;BME280;28252;53.336;-6.298;2022-08-14T00:26:49;100691.22;;;26.55;65.38
42621;BME280;28252;53.336;-6.298;2022-08-14T00:27:20;100693.94;;;26.55;65.25
42621;BME280;28252;53.336;-6.298;2022-08-14T00:27:51;100688.69;;;26.54;65.11
42621;BME280;28252;53.336;-6.298;2022-08-14T00:28:22;100687.66;;;26.55;65.17
42621;BME280;28252;53.336;-6.298;2022-08-14T00:28:56;100692.91;;;26.56;65.19
42621;BME280;28252;53.336;-6.298;2022-08-14T00:29:28;100685.75;;;26.55;65.07
42621;BME280;28252;53.336;-6.298;2022-08-14T00:29:59;100691.22;;;26.55;65.31
42621;BME280;28252;53.336;-6.298;2022-08-14T00:30:30;100685.75;;;26.55;65.20
42621;BME280;28252;53.336;-6.298;2022-08-14T00:31:01;100682.41;;;26.53;65.22
42621;BME280;28252;53.336;-6.298;2022-08-14T00:31:32;100691.22;;;26.55;65.02
42621;BME280;28252;53.336;-6.298;2022-08-14T00:32:04;100689.53;;;26.54;64.93
42621;BME280;28252;53.336;-6.298;2022-08-14T00:32:35;100687.66;;;26.55;65.21
42621;BME280;28252;53.336;-6.298;2022-08-14T00:33:06;100685.75;;;26.55;65.20
42621;BME280;28252;53.336;-6.298;2022-08-14T00:33:37;100685.75;;;26.55;65.06
42621;BME280;28252;53.336;-6.298;2022-08-14T00:34:08;100684.91;;;26.55;65.32
42621;BME280;28252;53.336;-6.298;2022-08-14T00:34:39;100680.28;;;26.55;65.12
42621;BME280;28252;53.336;-6.298;2022-08-14T00:35:10;100686.56;;;26.56;65.11
42621;BME280;28252;53.336;-6.298;2022-08-14T00:35:41;100685.75;;;26.55;65.09
42621;BME280;28252;53.336;-6.298;2022-08-14T00:36:12;100681.13;;;26.56;65.16
42621;BME280;28252;53.336;-6.298;2022-08-14T00:36:43;100684.72;;;26.56;65.07
42621;BME280;28252;53.336;-6.298;2022-08-14T00:37:14;100680.28;;;26.55;65.12
42621;BME280;28252;53.336;-6.298;2022-08-14T00:37:45;100686.56;;;26.56;65.36
42621;BME280;28252;53.336;-6.298;2022-08-14T00:38:17;100677.56;;;26.55;65.21
42621;BME280;28252;53.336;-6.298;2022-08-14T00:38:48;100675.66;;;26.56;65.22
42621;BME280;28252;53.336;-6.298;2022-08-14T00:39:19;100684.72;;;26.56;65.06
42621;BME280;28252;53.336;-6.298;2022-08-14T00:39:50;100680.06;;;26.57;65.05
42621;BME280;28252;53.336;-6.298;2022-08-14T00:40:21;100677.34;;;26.57;65.12
42621;BME280;28252;53.336;-6.298;2022-08-14T00:40:53;100672.72;;;26.57;65.26
42621;BME280;28252;53.336;-6.298;2022-08-14T00:41:28;100680.06;;;26.57;65.12
42621;BME280;28252;53.336;-6.298;2022-08-14T00:41:59;100678.16;;;26.57;65.05
42621;BME280;28252;53.336;-6.298;2022-08-14T00:42:30;100675.66;;;26.56;65.13
42621;BME280;28252;53.336;-6.298;2022-08-14T00:43:01;100681.97;;;26.56;65.11
42621;BME280;28252;53.336;-6.298;2022-08-14T00:43:32;100671.06;;;26.56;65.19
42621;BME280;28252;53.336;-6.298;2022-08-14T00:44:03;100676.50;;;26.56;65.32
42621;BME280;28252;53.336;-6.298;2022-08-14T00:44:34;100666.41;;;26.57;65.13
42621;BME280;28252;53.336;-6.298;2022-08-14T00:45:06;100673.53;;;26.58;65.26
42621;BME280;28252;53.336;-6.298;2022-08-14T00:45:38;100668.06;;;26.58;65.03
42621;BME280;28252;53.336;-6.298;2022-08-14T00:46:11;100667.25;;;26.57;65.24
42621;BME280;28252;53.336;-6.298;2022-08-14T00:46:42;100669.97;;;26.57;65.48
42621;BME280;28252;53.336;-6.298;2022-08-14T00:47:16;100660.13;;;26.56;65.45
42621;BME280;28252;53.336;-6.298;2022-08-14T00:47:47;100662.84;;;26.56;65.45
42621;BME280;28252;53.336;-6.298;2022-08-14T00:48:18;100661.78;;;26.57;65.09
42621;BME280;28252;53.336;-6.298;2022-08-14T00:48:50;100668.06;;;26.58;65.12
42621;BME280;28252;53.336;-6.298;2022-08-14T00:49:20;100662.84;;;26.56;65.16
42621;BME280;28252;53.336;-6.298;2022-08-14T00:49:52;100660.13;;;26.56;65.28
42621;BME280;28252;53.336;-6.298;2022-08-14T00:50:23;100658.22;;;26.57;65.30
42621;BME280;28252;53.336;-6.298;2022-08-14T00:50:54;100651.94;;;26.56;65.24
42621;BME280;28252;53.336;-6.298;2022-08-14T00:51:25;100658.00;;;26.58;65.27
42621;BME280;28252;53.336;-6.298;2022-08-14T00:51:59;100656.31;;;26.57;65.16
42621;BME280;28252;53.336;-6.298;2022-08-14T00:52:30;100657.16;;;26.58;65.44
42621;BME280;28252;53.336;-6.298;2022-08-14T00:53:01;100653.59;;;26.57;65.20
42621;BME280;28252;53.336;-6.298;2022-08-14T00:53:33;100655.50;;;26.57;65.37
42621;BME280;28252;53.336;-6.298;2022-08-14T00:54:05;100660.13;;;26.56;65.56
42621;BME280;28252;53.336;-6.298;2022-08-14T00:54:37;100653.59;;;26.57;65.26
42621;BME280;28252;53.336;-6.298;2022-08-14T00:55:08;100658.22;;;26.57;65.39
42621;BME280;28252;53.336;-6.298;2022-08-14T00:55:39;100659.88;;;26.58;65.49
42621;BME280;28252;53.336;-6.298;2022-08-14T00:56:12;100656.31;;;26.57;65.39
42621;BME280;28252;53.336;-6.298;2022-08-14T00:56:44;100653.59;;;26.57;65.35
42621;BME280;28252;53.336;-6.298;2022-08-14T00:57:15;100654.41;;;26.58;65.33
42621;BME280;28252;53.336;-6.298;2022-08-14T00:57:46;100659.06;;;26.57;65.52
42621;BME280;28252;53.336;-6.298;2022-08-14T00:58:40;100644.56;;;26.57;65.52
42621;BME280;28252;53.336;-6.298;2022-08-14T00:59:11;100652.56;;;26.58;65.21
42621;BME280;28252;53.336;-6.298;2022-08-14T00:59:42;100651.69;;;26.58;65.15
42621;BME280;28252;53.336;-6.298;2022-08-14T01:00:13;100656.31;;;26.57;65.27
42621;BME280;28252;53.336;-6.298;2022-08-14T01:00:45;100664.50;;;26.57;65.50
42621;BME280;28252;53.336;-6.298;2022-08-14T01:01:17;100650.03;;;26.57;65.11
42621;BME280;28252;53.336;-6.298;2022-08-14T01:01:48;100653.59;;;26.57;65.47
42621;BME280;28252;53.336;-6.298;2022-08-14T01:02:19;100650.03;;;26.57;65.18
42621;BME280;28252;53.336;-6.298;2022-08-14T01:02:54;100661.78;;;26.57;65.32
42621;BME280;28252;53.336;-6.298;2022-08-14T01:03:25;100646.22;;;26.58;65.44
42621;BME280;28252;53.336;-6.298;2022-08-14T01:03:59;100650.84;;;26.57;65.31
42621;BME280;28252;53.336;-6.298;2022-08-14T01:04:33;100653.59;;;26.57;65.13
42621;BME280;28252;53.336;-6.298;2022-08-14T01:05:05;100642.66;;;26.57;65.14
42621;BME280;28252;53.336;-6.298;2022-08-14T01:05:37;100645.41;;;26.57;65.13
42621;BME280;28252;53.336;-6.298;2022-08-14T01:06:09;100652.56;;;26.58;65.26
42621;BME280;28252;53.336;-6.298;2022-08-14T01:06:41;100649.81;;;26.58;65.46
42621;BME280;28252;53.336;-6.298;2022-08-14T01:07:12;100648.97;;;26.58;65.53
42621;BME280;28252;53.336;-6.298;2022-08-14T01:07:50;100651.69;;;26.58;65.47
42621;BME280;28252;53.336;-6.298;2022-08-14T01:08:25;100641.63;;;26.58;65.10
42621;BME280;28252;53.336;-6.298;2022-08-14T01:08:56;100639.94;;;26.57;65.43
42621;BME280;28252;53.336;-6.298;2022-08-14T01:09:27;100644.34;;;26.58;65.42
42621;BME280;28252;53.336;-6.298;2022-08-14T01:10:00;100643.50;;;26.58;65.18
42621;BME280;28252;53.336;-6.298;2022-08-14T01:10:31;100646.22;;;26.58;65.27
42621;BME280;28252;53.336;-6.298;2022-08-14T01:11:20;100639.94;;;26.57;65.42
42621;BME280;28252;53.336;-6.298;2022-08-14T01:11:52;100642.66;;;26.57;65.43
42621;BME280;28252;53.336;-6.298;2022-08-14T01:12:23;100639.94;;;26.57;65.18
42621;BME280;28252;53.336;-6.298;2022-08-14T01:12:55;100636.16;;;26.58;65.18
42621;BME280;28252;53.336;-6.298;2022-08-14T01:13:27;100644.34;;;26.58;65.21
42621;BME280;28252;53.336;-6.298;2022-08-14T01:13:58;100635.28;;;26.58;65.21
42621;BME280;28252;53.336;-6.298;2022-08-14T01:14:31;100637.00;;;26.59;65.34
42621;BME280;28252;53.336;-6.298;2022-08-14T01:15:02;100641.63;;;26.58;65.43
42621;BME280;28252;53.336;-6.298;2022-08-14T01:15:33;100641.63;;;26.58;65.25
42621;BME280;28252;53.336;-6.298;2022-08-14T01:16:08;100637.19;;;26.57;65.18
42621;BME280;28252;53.336;-6.298;2022-08-14T01:16:40;100639.94;;;26.57;65.40
42621;BME280;28252;53.336;-6.298;2022-08-14T01:17:11;100634.47;;;26.57;65.39
42621;BME280;28252;53.336;-6.298;2022-08-14T01:17:42;100634.47;;;26.57;65.35
42621;BME280;28252;53.336;-6.298;2022-08-14T01:18:31;100638.88;;;26.58;65.50
42621;BME280;28252;53.336;-6.298;2022-08-14T01:19:21;100642.66;;;26.57;65.26
42621;BME280;28252;53.336;-6.298;2022-08-14T01:20:11;100641.63;;;26.58;65.41
42621;BME280;28252;53.336;-6.298;2022-08-14T01:21:00;100644.34;;;26.58;65.44
42621;BME280;28252;53.336;-6.298;2022-08-14T01:21:36;100637.00;;;26.59;65.18
42621;BME280;28252;53.336;-6.298;2022-08-14T01:22:11;100639.94;;;26.57;65.46
42621;BME280;28252;53.336;-6.298;2022-08-14T01:22:42;100632.56;;;26.58;65.49
42621;BME280;28252;53.336;-6.298;2022-08-14T01:23:15;100639.94;;;26.57;65.45
42621;BME280;28252;53.336;-6.298;2022-08-14T01:23:47;100635.28;;;26.58;65.52
42621;BME280;28252;53.336;-6.298;2022-08-14T01:24:20;100633.44;;;26.58;65.21
42621;BME280;28252;53.336;-6.298;2022-08-14T01:24:51;100634.47;;;26.57;65.40
42621;BME280;28252;53.336;-6.298;2022-08-14T01:25:22;100642.66;;;26.57;65.48
42621;BME280;28252;53.336;-6.298;2022-08-14T01:25:54;100634.47;;;26.57;65.12
42621;BME280;28252;53.336;-6.298;2022-08-14T01:26:25;100636.16;;;26.58;65.31
42621;BME280;28252;53.336;-6.298;2022-08-14T01:26:57;100639.94;;;26.57;65.63
42621;BME280;28252;53.336;-6.298;2022-08-14T01:27:29;100634.47;;;26.57;65.47
42621;BME280;28252;53.336;-6.298;2022-08-14T01:28:00;100638.88;;;26.58;65.49
42621;BME280;28252;53.336;-6.298;2022-08-14T01:28:31;100634.25;;;26.59;65.53
42621;BME280;28252;53.336;-6.298;2022-08-14T01:29:07;100638.88;;;26.58;65.43
42621;BME280;28252;53.336;-6.298;2022-08-14T01:29:39;100643.28;;;26.59;65.38
42621;BME280;28252;53.336;-6.298;2022-08-14T01:30:10;100644.16;;;26.60;65.44
42621;BME280;28252;53.336;-6.298;2022-08-14T01:30:41;100633.44;;;26.58;65.66
42621;BME280;28252;53.336;-6.298;2022-08-14T01:31:13;100637.81;;;26.59;65.46
42621;BME280;28252;53.336;-6.298;2022-08-14T01:31:45;100636.16;;;26.58;65.50
42621;BME280;28252;53.336;-6.298;2022-08-14T01:32:22;100640.56;;;26.59;65.71
42621;BME280;28252;53.336;-6.298;2022-08-14T01:32:53;100630.69;;;26.58;65.51
42621;BME280;28252;53.336;-6.298;2022-08-14T01:33:25;100638.88;;;26.58;65.68
42621;BME280;28252;53.336;-6.298;2022-08-14T01:33:59;100630.69;;;26.58;65.55
42621;BME280;28252;53.336;-6.298;2022-08-14T01:34:30;100632.34;;;26.59;65.49
42621;BME280;28252;53.336;-6.298;2022-08-14T01:35:03;100633.44;;;26.58;65.50
42621;BME280;28252;53.336;-6.298;2022-08-14T01:35:38;100627.97;;;26.58;65.38
42621;BME280;28252;53.336;-6.298;2022-08-14T01:36:10;100625.22;;;26.58;65.36
42621;BME280;28252;53.336;-6.298;2022-08-14T01:36:42;100631.75;;;26.57;65.58
42621;BME280;28252;53.336;-6.298;2022-08-14T01:37:13;100626.28;;;26.57;65.73
42621;BME280;28252;53.336;-6.298;2022-08-14T01:37:44;100634.47;;;26.57;65.44
42621;BME280;28252;53.336;-6.298;2022-08-14T01:38:18;100627.09;;;26.58;65.52
42621;BME280;28252;53.336;-6.298;2022-08-14T01:38:50;100629.00;;;26.57;65.75
42621;BME280;28252;53.336;-6.298;2022-08-14T01:39:21;100625.22;;;26.58;65.47
42621;BME280;28252;53.336;-6.298;2022-08-14T01:39:52;100623.53;;;26.57;65.57
42621;BME280;28252;53.336;-6.298;2022-08-14T01:40:24;100627.97;;;26.58;65.74
42621;BME280;28252;53.336;-6.298;2022-08-14T01:40:55;100620.59;;;26.59;65.48
42621;BME280;28252;53.336;-6.298;2022-08-14T01:41:26;100626.06;;;26.59;65.56
42621;BME280;28252;53.336;-6.298;2022-08-14T01:41:57;100625.22;;;26.58;65.57
42621;BME280;28252;53.336;-6.298;2022-08-14T01:42:30;100627.09;;;26.58;65.57
42621;BME280;28252;53.336;-6.298;2022-08-14T01:43:01;100625.22;;;26.58;65.51
42621;BME280;28252;53.336;-6.298;2022-08-14T01:43:41;100630.69;;;26.58;65.39
42621;BME280;28252;53.336;-6.298;2022-08-14T01:44:13;100625.22;;;26.58;65.59
42621;BME280;28252;53.336;-6.298;2022-08-14T01:44:46;100628.78;;;26.59;65.52
42621;BME280;28252;53.336;-6.298;2022-08-14T01:45:20;100619.78;;;26.58;65.47
42621;BME280;28252;53.336;-6.298;2022-08-14T01:45:51;100626.28;;;26.57;65.32
42621;BME280;28252;53.336;-6.298;2022-08-14T01:46:23;100632.34;;;26.59;65.52
42621;BME280;28252;53.336;-6.298;2022-08-14T01:46:55;100620.81;;;26.57;65.35
42621;BME280;28252;53.336;-6.298;2022-08-14T01:47:27;100623.53;;;26.57;65.40
42621;BME280;28252;53.336;-6.298;2022-08-14T01:47:58;100624.38;;;26.58;65.50
42621;BME280;28252;53.336;-6.298;2022-08-14T01:48:29;100623.53;;;26.57;65.19
42621;BME280;28252;53.336;-6.298;2022-08-14T01:49:04;100620.81;;;26.57;65.57
42621;BME280;28252;53.336;-6.298;2022-08-14T01:49:35;100619.78;;;26.58;65.38
42621;BME280;28252;53.336;-6.298;2022-08-14T01:50:07;100622.50;;;26.58;65.51
42621;BME280;28252;53.336;-6.298;2022-08-14T01:50:38;100621.44;;;26.59;65.13
42621;BME280;28252;53.336;-6.298;2022-08-14T01:51:12;100626.06;;;26.59;65.35
42621;BME280;28252;53.336;-6.298;2022-08-14T01:51:43;100619.78;;;26.58;65.35
42621;BME280;28252;53.336;-6.298;2022-08-14T01:52:15;100625.22;;;26.58;65.17
42621;BME280;28252;53.336;-6.298;2022-08-14T01:52:47;100619.78;;;26.58;65.47
42621;BME280;28252;53.336;-6.298;2022-08-14T01:53:18;100625.22;;;26.58;65.37
42621;BME280;28252;53.336;-6.298;2022-08-14T01:53:51;100615.97;;;26.59;65.53
42621;BME280;28252;53.336;-6.298;2022-08-14T01:54:23;100615.97;;;26.59;65.33
42621;BME280;28252;53.336;-6.298;2022-08-14T01:54:54;100615.97;;;26.59;65.42
42621;BME280;28252;53.336;-6.298;2022-08-14T01:55:25;100619.78;;;26.58;65.45
42621;BME280;28252;53.336;-6.298;2022-08-14T01:56:02;100614.31;;;26.58;65.50
42621;BME280;28252;53.336;-6.298;2022-08-14T01:56:34;100614.31;;;26.58;65.30
42621;BME280;28252;53.336;-6.298;2022-08-14T01:57:07;100615.13;;;26.59;65.54
42621;BME280;28252;53.336;-6.298;2022-08-14T01:57:42;100615.97;;;26.59;65.16
42621;BME280;28252;53.336;-6.298;2022-08-14T01:58:13;100616.19;;;26.58;65.29
42621;BME280;28252;53.336;-6.298;2022-08-14T01:58:45;100617.03;;;26.58;65.57
42621;BME280;28252;53.336;-6.298;2022-08-14T01:59:21;100608.84;;;26.58;65.58
42621;BME280;28252;53.336;-6.298;2022-08-14T01:59:54;100612.41;;;26.59;65.34
42621;BME280;28252;53.336;-6.298;2022-08-14T02:00:27;100604.22;;;26.59;65.40
42621;BME280;28252;53.336;-6.298;2022-08-14T02:00:58;100599.56;;;26.59;65.04
42621;BME280;28252;53.336;-6.298;2022-08-14T02:01:29;100601.47;;;26.59;65.51
42621;BME280;28252;53.336;-6.298;2022-08-14T02:02:07;100605.03;;;26.59;65.26
42621;BME280;28252;53.336;-6.298;2022-08-14T02:02:44;100603.38;;;26.58;65.26
42621;BME280;28252;53.336;-6.298;2022-08-14T02:03:16;100602.31;;;26.59;65.16
42621;BME280;28252;53.336;-6.298;2022-08-14T02:03:47;100605.03;;;26.59;65.34
42621;BME280;28252;53.336;-6.298;2022-08-14T02:04:18;100605.03;;;26.59;65.05
42621;BME280;28252;53.336;-6.298;2022-08-14T02:04:49;100606.13;;;26.58;64.90
42621;BME280;28252;53.336;-6.298;2022-08-14T02:05:20;100608.84;;;26.58;65.36
42621;BME280;28252;53.336;-6.298;2022-08-14T02:06:01;100604.44;;;26.57;65.20
42621;BME280;28252;53.336;-6.298;2022-08-14T02:06:33;100606.13;;;26.58;65.15
42621;BME280;28252;53.336;-6.298;2022-08-14T02:07:05;100603.38;;;26.58;65.17
42621;BME280;28252;53.336;-6.298;2022-08-14T02:07:36;100614.31;;;26.58;65.35
42621;BME280;28252;53.336;-6.298;2022-08-14T02:08:07;100604.22;;;26.59;65.19
42621;BME280;28252;53.336;-6.298;2022-08-14T02:08:39;100607.97;;;26.58;65.12
42621;BME280;28252;53.336;-6.298;2022-08-14T02:09:10;100598.97;;;26.57;65.11
42621;BME280;28252;53.336;-6.298;2022-08-14T02:09:41;100608.84;;;26.58;65.14
42621;BME280;28252;53.336;-6.298;2022-08-14T02:10:13;100600.66;;;26.58;65.18
42621;BME280;28252;53.336;-6.298;2022-08-14T02:10:44;100595.19;;;26.58;65.12
42621;BME280;28252;53.336;-6.298;2022-08-14T02:11:15;100599.78;;;26.58;65.14
42621;BME280;28252;53.336;-6.298;2022-08-14T02:11:52;100600.66;;;26.58;65.33
42621;BME280;28252;53.336;-6.298;2022-08-14T02:12:23;100602.53;;;26.58;65.14
42621;BME280;28252;53.336;-6.298;2022-08-14T02:12:55;100597.91;;;26.58;65.06
42621;BME280;28252;53.336;-6.298;2022-08-14T02:13:26;100595.19;;;26.58;64.97
42621;BME280;28252;53.336;-6.298;2022-08-14T02:14:01;100598.75;;;26.59;65.10
42621;BME280;28252;53.336;-6.298;2022-08-14T02:14:34;100605.03;;;26.59;64.89
42621;BME280;28252;53.336;-6.298;2022-08-14T02:15:06;100597.91;;;26.58;64.76
42621;BME280;28252;53.336;-6.298;2022-08-14T02:15:38;100597.91;;;26.58;64.86
42621;BME280;28252;53.336;-6.298;2022-08-14T02:16:10;100595.19;;;26.58;64.97
42621;BME280;28252;53.336;-6.298;2022-08-14T02:16:42;100599.56;;;26.59;64.80
42621;BME280;28252;53.336;-6.298;2022-08-14T02:17:13;100592.44;;;26.58;64.79
42621;BME280;28252;53.336;-6.298;2022-08-14T02:17:44;100597.06;;;26.58;64.83
42621;BME280;28252;53.336;-6.298;2022-08-14T02:18:15;100601.69;;;26.57;64.96
42621;BME280;28252;53.336;-6.298;2022-08-14T02:18:46;100593.28;;;26.59;64.85
42621;BME280;28252;53.336;-6.298;2022-08-14T02:19:20;100584.25;;;26.58;64.72
42621;BME280;28252;53.336;-6.298;2022-08-14T02:19:51;100593.50;;;26.57;65.00
42621;BME280;28252;53.336;-6.298;2022-08-14T02:20:23;100584.47;;;26.57;64.99
42621;BME280;28252;53.336;-6.298;2022-08-14T02:20:53;100588.03;;;26.57;64.72
42621;BME280;28252;53.336;-6.298;2022-08-14T02:21:25;100589.09;;;26.56;65.00
42621;BME280;28252;53.336;-6.298;2022-08-14T02:21:57;100585.31;;;26.57;64.99
42621;BME280;28252;53.336;-6.298;2022-08-14T02:22:29;100589.72;;;26.58;64.76
42621;BME280;28252;53.336;-6.298;2022-08-14T02:23:00;100585.31;;;26.57;64.87
42621;BME280;28252;53.336;-6.298;2022-08-14T02:23:31;100589.94;;;26.57;65.00
42621;BME280;28252;53.336;-6.298;2022-08-14T02:24:03;100584.47;;;26.57;64.76
42621;BME280;28252;53.336;-6.298;2022-08-14T02:24:34;100585.31;;;26.57;64.82
42621;BME280;28252;53.336;-6.298;2022-08-14T02:25:06;100579.84;;;26.57;64.81
42621;BME280;28252;53.336;-6.298;2022-08-14T02:25:37;100586.13;;;26.58;64.70
42621;BME280;28252;53.336;-6.298;2022-08-14T02:26:19;100579.84;;;26.57;64.71
42621;BME280;28252;53.336;-6.298;2022-08-14T02:26:50;100585.09;;;26.59;64.87
42621;BME280;28252;53.336;-6.298;2022-08-14T02:27:22;100579.84;;;26.57;64.77
42621;BME280;28252;53.336;-6.298;2022-08-14T02:27:53;100582.34;;;26.59;64.86
42621;BME280;28252;53.336;-6.298;2022-08-14T02:28:25;100585.31;;;26.57;64.71
42621;BME280;28252;53.336;-6.298;2022-08-14T02:29:00;100585.31;;;26.57;64.75
42621;BME280;28252;53.336;-6.298;2022-08-14T02:29:31;100586.13;;;26.58;64.97
42621;BME280;28252;53.336;-6.298;2022-08-14T02:30:03;100581.53;;;26.58;64.90
42621;BME280;28252;53.336;-6.298;2022-08-14T02:30:34;100585.31;;;26.57;64.90
42621;BME280;28252;53.336;-6.298;2022-08-14T02:31:05;100585.31;;;26.57;64.65
42621;BME280;28252;53.336;-6.298;2022-08-14T02:31:40;100588.88;;;26.58;64.75
42621;BME280;28252;53.336;-6.298;2022-08-14T02:32:11;100585.31;;;26.57;64.59
42621;BME280;28252;53.336;-6.298;2022-08-14T02:32:42;100585.31;;;26.57;64.75
42621;BME280;28252;53.336;-6.298;2022-08-14T02:33:15;100589.72;;;26.58;64.92
42621;BME280;28252;53.336;-6.298;2022-08-14T02:33:46;100586.13;;;26.58;64.66
42621;BME280;28252;53.336;-6.298;2022-08-14T02:34:18;100582.56;;;26.57;64.69
42621;BME280;28252;53.336;-6.298;2022-08-14T02:34:49;100584.25;;;26.58;64.62
42621;BME280;28252;53.336;-6.298;2022-08-14T02:35:20;100585.31;;;26.57;64.76
42621;BME280;28252;53.336;-6.298;2022-08-14T02:35:53;100583.41;;;26.58;64.71
42621;BME280;28252;53.336;-6.298;2022-08-14T02:36:25;100579.84;;;26.57;64.68
42621;BME280;28252;53.336;-6.298;2022-08-14T02:36:58;100579.84;;;26.57;64.68
42621;BME280;28252;53.336;-6.298;2022-08-14T02:37:31;100579.00;;;26.57;64.83
42621;BME280;28252;53.336;-6.298;2022-08-14T02:38:03;100579.84;;;26.57;64.79
42621;BME280;28252;53.336;-6.298;2022-08-14T02:38:34;100584.47;;;26.57;64.75
42621;BME280;28252;53.336;-6.298;2022-08-14T02:39:08;100575.19;;;26.58;64.89
42621;BME280;28252;53.336;-6.298;2022-08-14T02:39:41;100579.84;;;26.57;64.67
42621;BME280;28252;53.336;-6.298;2022-08-14T02:40:12;100575.19;;;26.58;64.51
42621;BME280;28252;53.336;-6.298;2022-08-14T02:40:43;100583.66;;;26.56;64.62
42621;BME280;28252;53.336;-6.298;2022-08-14T02:41:14;100576.28;;;26.57;64.56
42621;BME280;28252;53.336;-6.298;2022-08-14T02:41:47;100582.56;;;26.57;64.43
42621;BME280;28252;53.336;-6.298;2022-08-14T02:42:20;100580.66;;;26.58;64.49
42621;BME280;28252;53.336;-6.298;2022-08-14T02:42:52;100585.31;;;26.57;64.81
42621;BME280;28252;53.336;-6.298;2022-08-14T02:43:23;100578.78;;;26.58;64.42
42621;BME280;28252;53.336;-6.298;2022-08-14T02:43:53;100577.94;;;26.58;64.41
42621;BME280;28252;53.336;-6.298;2022-08-14T02:44:24;100577.09;;;26.57;64.57
42621;BME280;28252;53.336;-6.298;2022-08-14T02:44:55;100581.53;;;26.58;64.37
42621;BME280;28252;53.336;-6.298;2022-08-14T02:45:26;100572.72;;;26.56;64.39
42621;BME280;28252;53.336;-6.298;2022-08-14T02:46:04;100577.09;;;26.57;64.57
42621;BME280;28252;53.336;-6.298;2022-08-14T02:46:36;100572.72;;;26.56;64.38
42621;BME280;28252;53.336;-6.298;2022-08-14T02:47:07;100574.38;;;26.57;64.77